sensor_id;sensor_type;location;lat;lon;timestamp;pressure;altitude;pressure_sealevel;temperature;humidity
8705;BME280;4389;41.932;25.904;2023-04-04T00:01:12;99357.22;;;12.12;100.00
8705;BME280;4389;41.932;25.904;2023-04-04T00:03:40;99307.13;;;12.17;100.00
8705;BME280;4389;41.932;25.904;2023-04-04T00:06:07;99312.13;;;12.12;100.00
8705;BME280;4389;41.932;25.904;2023-04-04T00:08:35;99327.25;;;12.04;100.00
8705;BME280;4389;41.932;25.904;2023-04-04T00:11:02;99327.63;;;12.01;100.00
8705;BME280;4389;41.932;25.904;2023-04-04T00:13:31;99329.44;;;12.00;100.00
8705;BME280;4389;41.932;25.904;2023-04-04T00:15:58;99340.19;;;11.99;100.00
8705;BME280;4389;41.932;25.904;2023-04-04T00:18:25;99352.19;;;11.87;100.00
8705;BME280;4389;41.932;25.904;2023-04-04T00:20:52;99351.97;;;11.96;100.00
8705;BME280;4389;41.932;25.904;2023-04-04T00:23:19;99353.13;;;12.02;100.00
8705;BME280;4389;41.932;25.904;2023-04-04T00:25:50;99366.19;;;12.11;100.00
8705;BME280;4389;41.932;25.904;2023-04-04T00:28:17;99371.69;;;12.02;100.00
8705;BME280;4389;41.932;25.904;2023-04-04T00:30:44;99367.59;;;11.91;100.00
8705;BME280;4389;41.932;25.904;2023-04-04T00:33:11;99358.31;;;11.87;100.00
8705;BME280;4389;41.932;25.904;2023-04-04T00:35:38;99342.75;;;11.84;100.00
8705;BME280;4389;41.932;25.904;2023-04-04T00:38:05;99349.66;;;11.93;100.00
8705;BME280;4389;41.932;25.904;2023-04-04T00:40:32;99344.06;;;11.88;100.00
8705;BME280;4389;41.932;25.904;2023-04-04T00:43:00;99338.44;;;11.91;100.00
8705;BME280;4389;41.932;25.904;2023-04-04T00:45:28;99339.59;;;11.89;100.00
8705;BME280;4389;41.932;25.904;2023-04-04T00:47:56;99342.09;;;11.90;100.00
8705;BME280;4389;41.932;25.904;2023-04-04T00:50:23;99341.72;;;11.93;100.00
8705;BME280;4389;41.932;25.904;2023-04-04T00:52:50;99353.00;;;11.87;100.00
8705;BME280;4389;41.932;25.904;2023-04-04T00:55:17;99362.09;;;11.93;100.00
8705;BME280;4389;41.932;25.904;2023-04-04T00:57:44;99365.94;;;11.82;100.00
8705;BME280;4389;41.932;25.904;2023-04-04T01:00:14;99364.25;;;11.97;100.00
8705;BME280;4389;41.932;25.904;2023-04-04T01:02:41;99388.41;;;12.02;100.00
8705;BME280;4389;41.932;25.904;2023-04-04T01:05:08;99374.13;;;12.03;100.00
8705;BME280;4389;41.932;25.904;2023-04-04T01:07:35;99377.19;;;11.92;100.00
8705;BME280;4389;41.932;25.904;2023-04-04T01:10:02;99369.41;;;11.91;100.00
8705;BME280;4389;41.932;25.904;2023-04-04T01:12:30;99350.31;;;11.95;100.00
8705;BME280;4389;41.932;25.904;2023-04-04T01:14:57;99348.66;;;11.94;100.00
8705;BME280;4389;41.932;25.904;2023-04-04T01:17:25;99327.81;;;11.91;100.00
8705;BME280;4389;41.932;25.904;2023-04-04T01:19:57;99322.25;;;11.78;100.00
8705;BME280;4389;41.932;25.904;2023-04-04T01:22:26;99319.56;;;11.86;100.00
8705;BME280;4389;41.932;25.904;2023-04-04T01:24:56;99332.47;;;11.81;100.00
8705;BME280;4389;41.932;25.904;2023-04-04T01:27:25;99322.84;;;11.88;100.00
8705;BME280;4389;41.932;25.904;2023-04-04T01:29:52;99320.88;;;11.82;100.00
8705;BME280;4389;41.932;25.904;2023-04-04T01:32:20;99322.56;;;11.83;100.00
8705;BME280;4389;41.932;25.904;2023-04-04T01:34:59;99306.94;;;11.88;100.00
8705;BME280;4389;41.932;25.904;2023-04-04T01:37:32;99301.00;;;11.86;100.00
8705;BME280;4389;41.932;25.904;2023-04-04T01:40:07;99305.97;;;11.81;100.00
8705;BME280;4389;41.932;25.904;2023-04-04T01:42:40;99292.94;;;11.80;100.00
8705;BME280;4389;41.932;25.904;2023-04-04T01:45:08;99304.59;;;11.93;100.00
8705;BME280;4389;41.932;25.904;2023-04-04T01:47:38;99309.31;;;11.83;100.00
8705;BME280;4389;41.932;25.904;2023-04-04T01:50:07;99298.13;;;11.96;100.00
8705;BME280;4389;41.932;25.904;2023-04-04T01:52:34;99289.66;;;12.00;100.00
8705;BME280;4389;41.932;25.904;2023-04-04T01:55:01;99290.34;;;11.94;100.00
8705;BME280;4389;41.932;25.904;2023-04-04T01:57:29;99285.69;;;12.04;100.00
8705;BME280;4389;41.932;25.904;2023-04-04T01:59:57;99301.31;;;11.91;100.00
8705;BME280;4389;41.932;25.904;2023-04-04T02:02:24;99297.19;;;11.89;100.00
8705;BME280;4389;41.932;25.904;2023-04-04T02:04:51;99289.72;;;11.92;100.00
8705;BME280;4389;41.932;25.904;2023-04-04T02:07:18;99287.06;;;11.92;100.00
8705;BME280;4389;41.932;25.904;2023-04-04T02:09:45;99276.31;;;11.86;100.00
8705;BME280;4389;41.932;25.904;2023-04-04T02:12:12;99270.78;;;11.95;100.00
8705;BME280;4389;41.932;25.904;2023-04-04T02:14:39;99262.50;;;11.98;100.00
8705;BME280;4389;41.932;25.904;2023-04-04T02:17:07;99257.25;;;11.90;100.00
8705;BME280;4389;41.932;25.904;2023-04-04T02:19:34;99255.94;;;11.86;100.00
8705;BME280;4389;41.932;25.904;2023-04-04T02:22:01;99248.78;;;11.95;100.00
8705;BME280;4389;41.932;25.904;2023-04-04T02:24:28;99235.00;;;11.99;100.00
8705;BME280;4389;41.932;25.904;2023-04-04T02:26:54;99229.63;;;12.07;100.00
8705;BME280;4389;41.932;25.904;2023-04-04T02:29:21;99220.44;;;11.95;100.00
8705;BME280;4389;41.932;25.904;2023-04-04T02:31:48;99236.66;;;12.00;100.00
8705;BME280;4389;41.932;25.904;2023-04-04T02:34:16;99232.66;;;12.04;100.00
8705;BME280;4389;41.932;25.904;2023-04-04T02:36:43;99219.69;;;12.09;100.00
8705;BME280;4389;41.932;25.904;2023-04-04T02:39:10;99213.91;;;12.06;100.00
8705;BME280;4389;41.932;25.904;2023-04-04T02:41:37;99206.47;;;12.01;100.00
8705;BME280;4389;41.932;25.904;2023-04-04T02:44:04;99201.81;;;12.03;100.00
8705;BME280;4389;41.932;25.904;2023-04-04T02:46:30;99197.53;;;12.02;100.00
8705;BME280;4389;41.932;25.904;2023-04-04T02:48:57;99194.53;;;12.05;100.00
8705;BME280;4389;41.932;25.904;2023-04-04T02:51:27;99199.16;;;12.03;100.00
8705;BME280;4389;41.932;25.904;2023-04-04T02:53:54;99200.53;;;11.99;100.00
8705;BME280;4389;41.932;25.904;2023-04-04T02:56:20;99200.69;;;11.98;100.00
8705;BME280;4389;41.932;25.904;2023-04-04T02:58:47;99197.53;;;12.02;100.00
8705;BME280;4389;41.932;25.904;2023-04-04T03:01:14;99200.69;;;11.98;100.00
8705;BME280;4389;41.932;25.904;2023-04-04T03:03:42;99192.59;;;11.99;100.00
8705;BME280;4389;41.932;25.904;2023-04-04T03:06:08;99197.41;;;11.96;100.00
8705;BME280;4389;41.932;25.904;2023-04-04T03:08:37;99196.25;;;11.98;100.00
8705;BME280;4389;41.932;25.904;2023-04-04T03:11:04;99194.34;;;11.84;100.00
8705;BME280;4389;41.932;25.904;2023-04-04T03:13:31;99203.56;;;11.88;100.00
8705;BME280;4389;41.932;25.904;2023-04-04T03:15:59;99208.72;;;11.90;100.00
8705;BME280;4389;41.932;25.904;2023-04-04T03:18:27;99203.78;;;11.87;100.00
8705;BME280;4389;41.932;25.904;2023-04-04T03:20:54;99198.81;;;11.84;100.00
8705;BME280;4389;41.932;25.904;2023-04-04T03:23:20;99193.03;;;11.80;100.00
8705;BME280;4389;41.932;25.904;2023-04-04T03:25:49;99192.09;;;11.73;100.00
8705;BME280;4389;41.932;25.904;2023-04-04T03:28:16;99190.75;;;11.77;100.00
8705;BME280;4389;41.932;25.904;2023-04-04T03:30:43;99191.75;;;11.76;100.00
8705;BME280;4389;41.932;25.904;2023-04-04T03:33:10;99190.84;;;11.84;100.00
8705;BME280;4389;41.932;25.904;2023-04-04T03:35:37;99194.72;;;11.73;100.00
8705;BME280;4389;41.932;25.904;2023-04-04T03:38:04;99204.59;;;11.87;100.00
8705;BME280;4389;41.932;25.904;2023-04-04T03:40:31;99206.91;;;11.82;100.00
8705;BME280;4389;41.932;25.904;2023-04-04T03:42:59;99208.13;;;11.80;100.00
8705;BME280;4389;41.932;25.904;2023-04-04T03:45:27;99217.88;;;11.79;100.00
8705;BME280;4389;41.932;25.904;2023-04-04T03:47:54;99225.16;;;11.85;100.00
8705;BME280;4389;41.932;25.904;2023-04-04T03:50:21;99235.09;;;11.83;100.00
8705;BME280;4389;41.932;25.904;2023-04-04T03:52:49;99232.25;;;11.85;100.00
8705;BME280;4389;41.932;25.904;2023-04-04T03:55:16;99231.41;;;11.92;100.00
8705;BME280;4389;41.932;25.904;2023-04-04T03:57:43;99240.63;;;11.96;100.00
8705;BME280;4389;41.932;25.904;2023-04-04T04:00:12;99237.34;;;11.94;100.00
8705;BME280;4389;41.932;25.904;2023-04-04T04:02:39;99239.59;;;12.05;100.00
8705;BME280;4389;41.932;25.904;2023-04-04T04:05:06;99234.56;;;12.10;100.00
8705;BME280;4389;41.932;25.904;2023-04-04T04:07:33;99239.59;;;12.05;100.00
8705;BME280;4389;41.932;25.904;2023-04-04T04:10:00;99240.88;;;12.09;100.00
8705;BME280;4389;41.932;25.904;2023-04-04T04:12:27;99241.50;;;12.19;100.00
8705;BME280;4389;41.932;25.904;2023-04-04T04:14:54;99244.41;;;12.24;100.00
8705;BME280;4389;41.932;25.904;2023-04-04T04:17:22;99241.50;;;12.19;100.00
8705;BME280;4389;41.932;25.904;2023-04-04T04:19:49;99235.25;;;12.12;100.00
8705;BME280;4389;41.932;25.904;2023-04-04T04:22:16;99222.94;;;12.19;100.00
8705;BME280;4389;41.932;25.904;2023-04-04T04:24:42;99225.78;;;12.32;100.00
8705;BME280;4389;41.932;25.904;2023-04-04T04:27:09;99225.78;;;12.32;100.00
8705;BME280;4389;41.932;25.904;2023-04-04T04:29:36;99230.75;;;12.35;100.00
8705;BME280;4389;41.932;25.904;2023-04-04T04:32:03;99220.50;;;12.32;100.00
8705;BME280;4389;41.932;25.904;2023-04-04T04:34:31;99215.19;;;12.32;100.00
8705;BME280;4389;41.932;25.904;2023-04-04T04:36:58;99214.59;;;12.45;100.00
8705;BME280;4389;41.932;25.904;2023-04-04T04:39:25;99212.50;;;12.40;100.00
8705;BME280;4389;41.932;25.904;2023-04-04T04:41:51;99203.53;;;12.41;100.00
8705;BME280;4389;41.932;25.904;2023-04-04T04:44:18;99208.69;;;12.35;100.00
8705;BME280;4389;41.932;25.904;2023-04-04T04:46:45;99217.44;;;12.43;100.00
8705;BME280;4389;41.932;25.904;2023-04-04T04:49:12;99217.44;;;12.43;100.00
8705;BME280;4389;41.932;25.904;2023-04-04T04:51:40;99225.22;;;12.45;100.00
8705;BME280;4389;41.932;25.904;2023-04-04T04:54:07;99232.25;;;12.52;100.00
8705;BME280;4389;41.932;25.904;2023-04-04T04:56:35;99227.31;;;12.49;100.00
8705;BME280;4389;41.932;25.904;2023-04-04T04:59:02;99232.38;;;12.59;100.00
8705;BME280;4389;41.932;25.904;2023-04-04T05:01:31;99233.19;;;12.59;100.00
8705;BME280;4389;41.932;25.904;2023-04-04T05:03:58;99234.50;;;12.63;100.00
8705;BME280;4389;41.932;25.904;2023-04-04T05:06:25;99231.69;;;12.65;100.00
8705;BME280;4389;41.932;25.904;2023-04-04T05:08:54;99226.47;;;12.71;100.00
8705;BME280;4389;41.932;25.904;2023-04-04T05:11:20;99234.44;;;12.71;100.00
8705;BME280;4389;41.932;25.904;2023-04-04T05:13:47;99225.75;;;12.77;100.00
8705;BME280;4389;41.932;25.904;2023-04-04T05:16:14;99228.81;;;12.66;100.00
8705;BME280;4389;41.932;25.904;2023-04-04T05:18:42;99222.50;;;12.67;100.00
8705;BME280;4389;41.932;25.904;2023-04-04T05:21:09;99226.47;;;12.71;100.00
8705;BME280;4389;41.932;25.904;2023-04-04T05:23:35;99226.38;;;12.65;100.00
8705;BME280;4389;41.932;25.904;2023-04-04T05:26:04;99230.75;;;12.58;100.00
8705;BME280;4389;41.932;25.904;2023-04-04T05:28:31;99233.66;;;12.63;100.00
8705;BME280;4389;41.932;25.904;2023-04-04T05:30:58;99233.19;;;12.59;100.00
8705;BME280;4389;41.932;25.904;2023-04-04T05:33:25;99240.06;;;12.54;100.00
8705;BME280;4389;41.932;25.904;2023-04-04T05:35:51;99240.75;;;12.70;100.00
8705;BME280;4389;41.932;25.904;2023-04-04T05:38:18;99239.09;;;12.69;100.00
8705;BME280;4389;41.932;25.904;2023-04-04T05:40:45;99246.06;;;12.70;100.00
8705;BME280;4389;41.932;25.904;2023-04-04T05:43:14;99248.25;;;12.81;100.00
8705;BME280;4389;41.932;25.904;2023-04-04T05:45:40;99240.03;;;12.76;100.00
8705;BME280;4389;41.932;25.904;2023-04-04T05:48:07;99240.66;;;12.78;100.00
8705;BME280;4389;41.932;25.904;2023-04-04T05:50:34;99239.88;;;12.92;100.00
8705;BME280;4389;41.932;25.904;2023-04-04T05:53:01;99249.19;;;12.88;100.00
8705;BME280;4389;41.932;25.904;2023-04-04T05:55:29;99239.19;;;12.98;100.00
8705;BME280;4389;41.932;25.904;2023-04-04T05:57:56;99248.84;;;12.91;100.00
8705;BME280;4389;41.932;25.904;2023-04-04T06:00:24;99251.19;;;12.86;100.00
8705;BME280;4389;41.932;25.904;2023-04-04T06:02:51;99241.03;;;12.75;100.00
8705;BME280;4389;41.932;25.904;2023-04-04T06:05:18;99243.75;;;12.67;100.00
8705;BME280;4389;41.932;25.904;2023-04-04T06:07:45;99252.53;;;12.68;100.00
8705;BME280;4389;41.932;25.904;2023-04-04T06:10:12;99239.91;;;12.70;100.00
8705;BME280;4389;41.932;25.904;2023-04-04T06:12:39;99239.00;;;12.77;100.00
8705;BME280;4389;41.932;25.904;2023-04-04T06:15:07;99227.31;;;12.72;100.00
8705;BME280;4389;41.932;25.904;2023-04-04T06:17:35;99235.72;;;12.75;100.00
8705;BME280;4389;41.932;25.904;2023-04-04T06:20:03;99240.81;;;12.99;100.00
8705;BME280;4389;41.932;25.904;2023-04-04T06:22:30;99245.22;;;13.21;100.00
8705;BME280;4389;41.932;25.904;2023-04-04T06:24:57;99241.75;;;13.35;100.00
8705;BME280;4389;41.932;25.904;2023-04-04T06:27:23;99244.31;;;13.43;100.00
8705;BME280;4389;41.932;25.904;2023-04-04T06:29:50;99243.38;;;13.36;100.00
8705;BME280;4389;41.932;25.904;2023-04-04T06:32:18;99246.06;;;13.22;100.00
8705;BME280;4389;41.932;25.904;2023-04-04T06:34:47;99236.50;;;13.42;100.00
8705;BME280;4389;41.932;25.904;2023-04-04T06:37:14;99237.34;;;13.42;100.00
8705;BME280;4389;41.932;25.904;2023-04-04T06:39:42;99241.44;;;13.59;100.00
8705;BME280;4389;41.932;25.904;2023-04-04T06:42:09;99238.94;;;13.72;100.00
8705;BME280;4389;41.932;25.904;2023-04-04T06:44:36;99239.09;;;13.85;100.00
8705;BME280;4389;41.932;25.904;2023-04-04T06:47:03;99236.28;;;13.86;100.00
8705;BME280;4389;41.932;25.904;2023-04-04T06:49:30;99235.44;;;13.86;100.00
8705;BME280;4389;41.932;25.904;2023-04-04T06:52:14;99227.63;;;13.84;100.00
8705;BME280;4389;41.932;25.904;2023-04-04T06:54:41;99236.72;;;13.90;100.00
8705;BME280;4389;41.932;25.904;2023-04-04T06:57:08;99232.66;;;13.94;100.00
8705;BME280;4389;41.932;25.904;2023-04-04T06:59:34;99240.66;;;14.15;100.00
8705;BME280;4389;41.932;25.904;2023-04-04T07:02:01;99242.22;;;14.24;100.00
8705;BME280;4389;41.932;25.904;2023-04-04T07:04:29;99239.19;;;14.27;100.00
8705;BME280;4389;41.932;25.904;2023-04-04T07:06:59;99235.97;;;14.17;100.00
8705;BME280;4389;41.932;25.904;2023-04-04T07:09:27;99233.31;;;14.17;100.00
8705;BME280;4389;41.932;25.904;2023-04-04T07:11:54;99235.56;;;14.34;100.00
8705;BME280;4389;41.932;25.904;2023-04-04T07:14:21;99218.53;;;14.50;100.00
8705;BME280;4389;41.932;25.904;2023-04-04T07:16:49;99214.84;;;14.51;100.00
8705;BME280;4389;41.932;25.904;2023-04-04T07:19:16;99208.75;;;14.57;100.00
8705;BME280;4389;41.932;25.904;2023-04-04T07:21:43;99218.50;;;14.71;100.00
8705;BME280;4389;41.932;25.904;2023-04-04T07:24:10;99214.44;;;14.75;99.49
8705;BME280;4389;41.932;25.904;2023-04-04T07:26:38;99217.53;;;14.78;98.73
8705;BME280;4389;41.932;25.904;2023-04-04T07:29:05;99213.78;;;14.73;99.54
8705;BME280;4389;41.932;25.904;2023-04-04T07:31:32;99219.94;;;14.73;99.58
8705;BME280;4389;41.932;25.904;2023-04-04T07:33:59;99217.09;;;14.75;99.61
8705;BME280;4389;41.932;25.904;2023-04-04T07:36:26;99225.56;;;14.85;98.45
8705;BME280;4389;41.932;25.904;2023-04-04T07:38:53;99226.34;;;14.79;97.89
8705;BME280;4389;41.932;25.904;2023-04-04T07:41:20;99219.84;;;14.88;98.11
8705;BME280;4389;41.932;25.904;2023-04-04T07:43:48;99224.00;;;14.69;97.59
8705;BME280;4389;41.932;25.904;2023-04-04T07:46:16;99221.47;;;14.61;97.40
8705;BME280;4389;41.932;25.904;2023-04-04T07:48:44;99217.19;;;14.88;97.97
8705;BME280;4389;41.932;25.904;2023-04-04T07:51:11;99203.25;;;14.86;96.44
8705;BME280;4389;41.932;25.904;2023-04-04T07:53:38;99216.81;;;14.91;96.79
8705;BME280;4389;41.932;25.904;2023-04-04T07:56:05;99209.78;;;14.83;95.22
8705;BME280;4389;41.932;25.904;2023-04-04T07:58:32;99208.47;;;14.73;93.93
8705;BME280;4389;41.932;25.904;2023-04-04T08:01:01;99205.47;;;14.82;94.95
8705;BME280;4389;41.932;25.904;2023-04-04T08:03:28;99207.19;;;15.24;94.51
8705;BME280;4389;41.932;25.904;2023-04-04T08:05:55;99215.13;;;16.05;92.79
8705;BME280;4389;41.932;25.904;2023-04-04T08:08:22;99219.94;;;16.61;88.56
8705;BME280;4389;41.932;25.904;2023-04-04T08:10:49;99217.25;;;16.94;85.65
8705;BME280;4389;41.932;25.904;2023-04-04T08:13:15;99216.22;;;17.08;83.78
8705;BME280;4389;41.932;25.904;2023-04-04T08:15:43;99217.81;;;17.35;82.23
8705;BME280;4389;41.932;25.904;2023-04-04T08:18:11;99222.31;;;17.54;81.63
8705;BME280;4389;41.932;25.904;2023-04-04T08:20:38;99218.06;;;17.84;80.39
8705;BME280;4389;41.932;25.904;2023-04-04T08:23:05;99217.75;;;17.61;78.95
8705;BME280;4389;41.932;25.904;2023-04-04T08:25:32;99212.44;;;17.48;79.59
8705;BME280;4389;41.932;25.904;2023-04-04T08:27:59;99219.84;;;17.59;78.66
8705;BME280;4389;41.932;25.904;2023-04-04T08:30:28;99217.22;;;17.90;77.98
8705;BME280;4389;41.932;25.904;2023-04-04T08:32:55;99219.41;;;17.62;78.02
8705;BME280;4389;41.932;25.904;2023-04-04T08:35:23;99219.41;;;17.62;77.95
8705;BME280;4389;41.932;25.904;2023-04-04T08:37:50;99221.81;;;17.70;77.78
8705;BME280;4389;41.932;25.904;2023-04-04T08:40:17;99229.22;;;17.74;78.18
8705;BME280;4389;41.932;25.904;2023-04-04T08:42:45;99233.75;;;17.74;78.87
8705;BME280;4389;41.932;25.904;2023-04-04T08:45:16;99237.53;;;17.97;78.17
8705;BME280;4389;41.932;25.904;2023-04-04T08:47:45;99236.44;;;18.18;78.42
8705;BME280;4389;41.932;25.904;2023-04-04T08:50:14;99242.69;;;18.05;77.57
8705;BME280;4389;41.932;25.904;2023-04-04T08:52:43;99241.88;;;18.36;77.40
8705;BME280;4389;41.932;25.904;2023-04-04T08:55:11;99241.19;;;18.16;76.46
8705;BME280;4389;41.932;25.904;2023-04-04T08:57:39;99251.75;;;17.98;75.80
8705;BME280;4389;41.932;25.904;2023-04-04T09:00:07;99262.47;;;17.98;76.14
8705;BME280;4389;41.932;25.904;2023-04-04T09:02:40;99263.38;;;18.23;75.70
8705;BME280;4389;41.932;25.904;2023-04-04T09:05:09;99262.81;;;18.08;74.81
8705;BME280;4389;41.932;25.904;2023-04-04T09:07:38;99262.75;;;18.21;74.86
8705;BME280;4389;41.932;25.904;2023-04-04T09:10:07;99262.91;;;18.39;73.81
8705;BME280;4389;41.932;25.904;2023-04-04T09:12:35;99271.28;;;18.49;71.83
8705;BME280;4389;41.932;25.904;2023-04-04T09:15:03;99268.88;;;18.41;71.75
8705;BME280;4389;41.932;25.904;2023-04-04T09:17:30;99260.53;;;18.18;71.33
8705;BME280;4389;41.932;25.904;2023-04-04T09:20:00;99254.47;;;18.35;71.40
8705;BME280;4389;41.932;25.904;2023-04-04T09:22:29;99246.88;;;18.63;68.65
8705;BME280;4389;41.932;25.904;2023-04-04T09:24:57;99249.31;;;18.65;68.15
8705;BME280;4389;41.932;25.904;2023-04-04T09:27:26;99248.94;;;18.85;69.79
8705;BME280;4389;41.932;25.904;2023-04-04T09:29:55;99249.38;;;19.07;67.45
8705;BME280;4389;41.932;25.904;2023-04-04T09:32:25;99254.94;;;18.88;65.28
8705;BME280;4389;41.932;25.904;2023-04-04T09:34:52;99243.31;;;18.38;66.06
8705;BME280;4389;41.932;25.904;2023-04-04T09:37:20;99248.00;;;18.12;68.51
8705;BME280;4389;41.932;25.904;2023-04-04T09:39:47;99248.38;;;18.15;67.48
8705;BME280;4389;41.932;25.904;2023-04-04T09:42:14;99243.22;;;18.20;68.85
8705;BME280;4389;41.932;25.904;2023-04-04T09:44:45;99237.75;;;18.40;67.36
8705;BME280;4389;41.932;25.904;2023-04-04T09:47:25;99246.44;;;18.29;67.03
8705;BME280;4389;41.932;25.904;2023-04-04T09:49:52;99242.56;;;18.25;66.19
8705;BME280;4389;41.932;25.904;2023-04-04T09:52:20;99239.88;;;18.31;67.10
8705;BME280;4389;41.932;25.904;2023-04-04T09:54:54;99237.81;;;18.58;68.56
8705;BME280;4389;41.932;25.904;2023-04-04T09:57:23;99239.03;;;18.62;65.77
8705;BME280;4389;41.932;25.904;2023-04-04T09:59:51;99242.44;;;18.51;65.76
8705;BME280;4389;41.932;25.904;2023-04-04T10:02:21;99229.88;;;18.76;65.23
8705;BME280;4389;41.932;25.904;2023-04-04T10:04:48;99234.41;;;18.51;66.69
8705;BME280;4389;41.932;25.904;2023-04-04T10:07:15;99235.31;;;18.63;65.56
8705;BME280;4389;41.932;25.904;2023-04-04T10:09:42;99229.34;;;18.30;66.78
8705;BME280;4389;41.932;25.904;2023-04-04T10:12:10;99228.03;;;18.45;64.43
8705;BME280;4389;41.932;25.904;2023-04-04T10:14:37;99225.03;;;18.60;64.90
8705;BME280;4389;41.932;25.904;2023-04-04T10:17:09;99220.94;;;18.82;65.98
8705;BME280;4389;41.932;25.904;2023-04-04T10:19:36;99231.50;;;19.25;63.75
8705;BME280;4389;41.932;25.904;2023-04-04T10:22:04;99228.81;;;19.25;61.23
8705;BME280;4389;41.932;25.904;2023-04-04T10:24:33;99212.50;;;19.45;59.82
8705;BME280;4389;41.932;25.904;2023-04-04T10:27:00;99219.06;;;19.06;59.29
8705;BME280;4389;41.932;25.904;2023-04-04T10:29:27;99216.66;;;18.74;62.25
8705;BME280;4389;41.932;25.904;2023-04-04T10:31:58;99212.78;;;18.94;62.97
8705;BME280;4389;41.932;25.904;2023-04-04T10:34:31;99204.75;;;19.12;61.20
8705;BME280;4389;41.932;25.904;2023-04-04T10:37:06;99203.63;;;19.26;59.18
8705;BME280;4389;41.932;25.904;2023-04-04T10:39:36;99195.13;;;19.29;57.88
8705;BME280;4389;41.932;25.904;2023-04-04T10:42:07;99199.91;;;19.45;58.79
8705;BME280;4389;41.932;25.904;2023-04-04T10:44:37;99197.34;;;19.68;57.17
8705;BME280;4389;41.932;25.904;2023-04-04T10:47:08;99191.75;;;19.52;60.89
8705;BME280;4389;41.932;25.904;2023-04-04T10:49:42;99190.66;;;19.59;58.66
8705;BME280;4389;41.932;25.904;2023-04-04T10:52:10;99190.53;;;19.36;59.27
8705;BME280;4389;41.932;25.904;2023-04-04T10:54:39;99181.63;;;19.18;61.92
8705;BME280;4389;41.932;25.904;2023-04-04T10:57:08;99185.69;;;19.02;64.75
8705;BME280;4389;41.932;25.904;2023-04-04T10:59:57;99182.91;;;19.51;61.91
8705;BME280;4389;41.932;25.904;2023-04-04T11:02:46;99177.50;;;19.87;59.76
8705;BME280;4389;41.932;25.904;2023-04-04T11:05:25;99180.06;;;19.64;57.53
8705;BME280;4389;41.932;25.904;2023-04-04T11:07:56;99180.19;;;19.87;58.84
8705;BME280;4389;41.932;25.904;2023-04-04T11:10:25;99173.50;;;20.08;58.18
8705;BME280;4389;41.932;25.904;2023-04-04T11:12:54;99181.50;;;19.96;59.03
8705;BME280;4389;41.932;25.904;2023-04-04T11:15:24;99177.06;;;20.20;58.01
8705;BME280;4389;41.932;25.904;2023-04-04T11:17:56;99173.66;;;20.24;57.00
8705;BME280;4389;41.932;25.904;2023-04-04T11:20:28;99169.53;;;20.51;56.19
8705;BME280;4389;41.932;25.904;2023-04-04T11:23:04;99161.13;;;20.82;54.46
8705;BME280;4389;41.932;25.904;2023-04-04T11:25:32;99166.44;;;20.89;53.04
8705;BME280;4389;41.932;25.904;2023-04-04T11:28:06;99176.53;;;20.41;54.06
8705;BME280;4389;41.932;25.904;2023-04-04T11:30:37;99183.75;;;20.40;52.72
8705;BME280;4389;41.932;25.904;2023-04-04T11:33:10;99174.06;;;20.51;54.95
8705;BME280;4389;41.932;25.904;2023-04-04T11:35:40;99175.63;;;20.58;53.82
8705;BME280;4389;41.932;25.904;2023-04-04T11:38:12;99171.41;;;20.62;53.20
8705;BME280;4389;41.932;25.904;2023-04-04T11:40:41;99158.56;;;20.64;52.80
8705;BME280;4389;41.932;25.904;2023-04-04T11:43:09;99165.66;;;20.59;52.91
8705;BME280;4389;41.932;25.904;2023-04-04T11:45:42;99168.00;;;20.67;53.47
8705;BME280;4389;41.932;25.904;2023-04-04T11:48:09;99160.06;;;20.60;53.40
8705;BME280;4389;41.932;25.904;2023-04-04T11:50:39;99164.00;;;20.35;56.69
8705;BME280;4389;41.932;25.904;2023-04-04T11:53:07;99163.69;;;19.84;55.57
8705;BME280;4389;41.932;25.904;2023-04-04T11:55:39;99160.69;;;19.44;54.73
8705;BME280;4389;41.932;25.904;2023-04-04T11:58:08;99156.38;;;19.25;57.38
8705;BME280;4389;41.932;25.904;2023-04-04T12:00:36;99157.72;;;19.52;59.46
8705;BME280;4389;41.932;25.904;2023-04-04T12:03:05;99151.72;;;19.68;56.55
8705;BME280;4389;41.932;25.904;2023-04-04T12:05:33;99152.59;;;19.80;63.08
8705;BME280;4389;41.932;25.904;2023-04-04T12:08:02;99145.03;;;19.59;62.70
8705;BME280;4389;41.932;25.904;2023-04-04T12:10:30;99146.38;;;19.50;63.90
8705;BME280;4389;41.932;25.904;2023-04-04T12:13:00;99143.72;;;19.50;65.44
8705;BME280;4389;41.932;25.904;2023-04-04T12:15:27;99143.25;;;18.75;68.75
8705;BME280;4389;41.932;25.904;2023-04-04T12:17:57;99142.59;;;18.00;72.99
8705;BME280;4389;41.932;25.904;2023-04-04T12:20:25;99143.97;;;17.78;73.33
8705;BME280;4389;41.932;25.904;2023-04-04T12:22:52;99132.66;;;17.45;74.66
8705;BME280;4389;41.932;25.904;2023-04-04T12:25:21;99135.53;;;17.43;75.90
8705;BME280;4389;41.932;25.904;2023-04-04T12:27:49;99116.59;;;17.38;75.14
8705;BME280;4389;41.932;25.904;2023-04-04T12:30:17;99115.03;;;17.18;76.50
8705;BME280;4389;41.932;25.904;2023-04-04T12:32:46;99135.22;;;17.07;76.93
8705;BME280;4389;41.932;25.904;2023-04-04T12:35:13;99127.03;;;16.96;79.12
8705;BME280;4389;41.932;25.904;2023-04-04T12:37:56;99110.59;;;16.86;79.23
8705;BME280;4389;41.932;25.904;2023-04-04T12:40:28;99127.25;;;16.88;78.74
8705;BME280;4389;41.932;25.904;2023-04-04T12:42:55;99121.09;;;16.81;78.37
8705;BME280;4389;41.932;25.904;2023-04-04T12:45:24;99129.75;;;16.63;80.65
8705;BME280;4389;41.932;25.904;2023-04-04T12:47:52;99130.38;;;16.59;80.23
8705;BME280;4389;41.932;25.904;2023-04-04T12:50:21;99142.28;;;16.50;80.86
8705;BME280;4389;41.932;25.904;2023-04-04T12:52:50;99132.00;;;16.21;81.64
8705;BME280;4389;41.932;25.904;2023-04-04T12:55:20;99131.34;;;16.12;82.56
8705;BME280;4389;41.932;25.904;2023-04-04T12:57:49;99137.72;;;16.05;82.06
8705;BME280;4389;41.932;25.904;2023-04-04T13:00:19;99139.16;;;15.94;82.32
8705;BME280;4389;41.932;25.904;2023-04-04T13:02:48;99140.56;;;15.84;82.35
8705;BME280;4389;41.932;25.904;2023-04-04T13:05:16;99146.31;;;15.81;82.63
8705;BME280;4389;41.932;25.904;2023-04-04T13:07:46;99152.66;;;15.80;83.46
8705;BME280;4389;41.932;25.904;2023-04-04T13:10:14;99134.41;;;15.70;83.58